createdAt,value
2022-10-31T00:01:21.703Z,101341.66
2022-10-31T00:03:49.564Z,101343.25
2022-10-31T00:06:19.086Z,101351.13
2022-10-31T00:08:48.493Z,101359.41
2022-10-31T00:11:16.240Z,101351.19
2022-10-31T00:13:43.874Z,101352.63
2022-10-31T00:16:18.233Z,101359.66
2022-10-31T00:18:46.068Z,101356.13
2022-10-31T00:21:13.699Z,101347.72
2022-10-31T00:23:41.380Z,101350.16
2022-10-31T00:26:10.399Z,101346.78
2022-10-31T00:28:38.080Z,101340.72
2022-10-31T00:31:07.595Z,101348.28
2022-10-31T00:33:35.879Z,101348.28
2022-10-31T00:36:03.516Z,101343.38
2022-10-31T00:38:31.160Z,101355.47
2022-10-31T00:40:58.810Z,101348.78
2022-10-31T00:43:27.798Z,101358.34
2022-10-31T00:45:55.485Z,101362.88
2022-10-31T00:48:23.111Z,101357.91
2022-10-31T00:50:50.768Z,101352.28
2022-10-31T00:53:18.428Z,101359.16
2022-10-31T00:55:46.092Z,101359.59
2022-10-31T01:00:46.709Z,101359.63
2022-10-31T01:03:17.167Z,101368.53
2022-10-31T01:05:44.821Z,101361.41
2022-10-31T01:08:12.458Z,101363.53
2022-10-31T01:10:40.081Z,101361.94
2022-10-31T01:13:07.724Z,101382.81
2022-10-31T01:15:35.347Z,101377.09
2022-10-31T01:18:04.488Z,101371.72
2022-10-31T01:20:32.145Z,101373.31
2022-10-31T01:22:59.764Z,101372.19
2022-10-31T01:25:27.526Z,101375.44
2022-10-31T01:27:55.155Z,101367.44
2022-10-31T01:30:22.808Z,101375.97
2022-10-31T01:32:50.523Z,101377.66
2022-10-31T01:35:19.535Z,101378.81
2022-10-31T01:37:47.174Z,101378.72
2022-10-31T01:40:14.824Z,101380.91
2022-10-31T01:42:42.457Z,101390.19
2022-10-31T01:45:12.515Z,101378.16
2022-10-31T01:47:43.759Z,101383.47
2022-10-31T01:50:21.637Z,101381.09
2022-10-31T01:52:51.597Z,101381.59
2022-10-31T01:55:25.219Z,101380.03
2022-10-31T01:58:00.631Z,101379.84
2022-10-31T02:00:28.533Z,101371.13
2022-10-31T02:02:57.104Z,101373.31
2022-10-31T02:05:28.536Z,101382.78
2022-10-31T02:07:57.856Z,101372.78
2022-10-31T02:10:26.001Z,101380.72
2022-10-31T02:12:55.242Z,101374.16
2022-10-31T02:15:22.885Z,101374.44
2022-10-31T02:17:50.748Z,101381.06
2022-10-31T02:20:20.483Z,101385.91
2022-10-31T02:23:09.087Z,101387.22
2022-10-31T02:25:53.395Z,101394.53
2022-10-31T02:28:47.120Z,101394.16
2022-10-31T02:31:23.895Z,101384.50
2022-10-31T02:33:54.212Z,101384.31
2022-10-31T02:36:27.957Z,101380.13
2022-10-31T02:39:03.417Z,101379.94
2022-10-31T02:41:35.299Z,101373.47
2022-10-31T02:44:08.290Z,101375.81
2022-10-31T02:46:41.286Z,101372.22
2022-10-31T02:49:13.531Z,101365.25
2022-10-31T02:51:41.598Z,101362.69
2022-10-31T02:54:23.449Z,101364.59
2022-10-31T02:56:52.838Z,101354.38
2022-10-31T02:59:20.971Z,101369.56
2022-10-31T03:02:20.046Z,101366.66
2022-10-31T03:05:14.193Z,101360.34
2022-10-31T03:07:44.788Z,101367.19
2022-10-31T03:10:19.748Z,101373.16
2022-10-31T03:12:52.927Z,101371.84
2022-10-31T03:15:24.720Z,101369.88
2022-10-31T03:17:57.410Z,101374.25
2022-10-31T03:20:29.652Z,101367.25
2022-10-31T03:22:57.487Z,101374.91
2022-10-31T03:25:25.640Z,101370.72
2022-10-31T03:27:53.668Z,101379.97
2022-10-31T03:30:21.535Z,101377.84
2022-10-31T03:32:52.034Z,101373.47
2022-10-31T03:35:23.276Z,101369.69
2022-10-31T03:37:53.721Z,101379.38
2022-10-31T03:40:23.454Z,101366.72
2022-10-31T03:42:55.671Z,101363.09
2022-10-31T03:45:25.919Z,101355.72
2022-10-31T03:47:54.706Z,101368.16
2022-10-31T03:50:26.003Z,101379.84
2022-10-31T03:52:57.539Z,101370.41
2022-10-31T03:55:28.735Z,101372.06
2022-10-31T03:58:00.148Z,101370.09
2022-10-31T04:00:28.416Z,101372.31
2022-10-31T04:02:58.353Z,101368.72
2022-10-31T04:05:27.595Z,101371.13
2022-10-31T04:07:57.210Z,101371.47
2022-10-31T04:10:30.208Z,101383.59
2022-10-31T04:13:03.989Z,101378.47
2022-10-31T04:15:33.307Z,101367.88
2022-10-31T04:18:01.740Z,101379.84
2022-10-31T04:20:36.006Z,101375.88
2022-10-31T04:23:04.700Z,101373.91
2022-10-31T04:25:32.341Z,101383.72
2022-10-31T04:28:00.307Z,101379.25
2022-10-31T04:30:28.215Z,101376.69
2022-10-31T04:32:55.845Z,101377.88
2022-10-31T04:35:23.495Z,101364.88
2022-10-31T04:37:52.489Z,101385.41
2022-10-31T04:40:20.114Z,101383.97
2022-10-31T04:42:47.777Z,101383.22
2022-10-31T04:45:18.471Z,101384.31
2022-10-31T04:47:48.789Z,101382.78
2022-10-31T04:50:16.615Z,101388.16
2022-10-31T04:52:45.056Z,101386.25
2022-10-31T04:55:15.066Z,101376.94
2022-10-31T04:57:43.768Z,101381.63
2022-10-31T05:00:12.905Z,101385.47
2022-10-31T05:02:45.520Z,101383.72
2022-10-31T05:05:13.754Z,101391.41
2022-10-31T05:07:42.517Z,101387.06
2022-10-31T05:10:11.821Z,101382.09
2022-10-31T05:12:42.586Z,101382.41
2022-10-31T05:15:10.335Z,101388.84
2022-10-31T05:17:37.800Z,101376.50
2022-10-31T05:20:05.646Z,101379.75
2022-10-31T05:22:33.107Z,101376.56
2022-10-31T05:25:00.542Z,101378.28
2022-10-31T05:27:28.016Z,101373.16
2022-10-31T05:29:56.839Z,101368.38
2022-10-31T05:32:24.398Z,101365.81
2022-10-31T05:34:51.856Z,101359.59
2022-10-31T05:37:19.331Z,101363.59
2022-10-31T05:39:46.774Z,101369.19
2022-10-31T05:42:14.235Z,101374.94
2022-10-31T05:44:41.700Z,101372.72
2022-10-31T05:47:10.641Z,101362.63
2022-10-31T05:49:38.086Z,101358.88
2022-10-31T05:52:05.802Z,101352.34
2022-10-31T05:54:33.414Z,101362.63
2022-10-31T05:57:00.920Z,101364.47
2022-10-31T05:59:28.404Z,101362.13
2022-10-31T06:01:55.977Z,101361.84
2022-10-31T06:04:24.847Z,101365.56
2022-10-31T06:06:52.399Z,101359.03
2022-10-31T06:09:19.849Z,101364.69
2022-10-31T06:11:47.471Z,101370.44
2022-10-31T06:14:14.968Z,101375.25
2022-10-31T06:16:42.452Z,101370.66
2022-10-31T06:19:09.918Z,101369.56
2022-10-31T06:21:38.762Z,101372.22
2022-10-31T06:24:06.639Z,101368.78
2022-10-31T06:26:34.111Z,101371.81
2022-10-31T06:29:04.039Z,101374.00
2022-10-31T06:31:32.727Z,101381.28
2022-10-31T06:34:00.191Z,101386.91
2022-10-31T06:39:01.948Z,101384.38
2022-10-31T06:41:29.477Z,101373.97
2022-10-31T06:43:56.963Z,101380.34
2022-10-31T06:46:24.444Z,101376.16
2022-10-31T06:48:51.908Z,101389.38
2022-10-31T06:51:19.380Z,101386.34
2022-10-31T06:53:46.844Z,101385.97
2022-10-31T06:56:15.679Z,101387.53
2022-10-31T06:58:43.134Z,101375.88
2022-10-31T07:01:10.698Z,101385.66
2022-10-31T07:03:38.211Z,101389.41
2022-10-31T07:06:05.831Z,101385.34
2022-10-31T07:08:33.307Z,101388.94
2022-10-31T07:11:00.769Z,101389.06
2022-10-31T07:13:29.588Z,101395.75
2022-10-31T07:15:57.527Z,101406.81
2022-10-31T07:18:24.956Z,101396.16
2022-10-31T07:20:53.387Z,101402.31
2022-10-31T07:23:20.955Z,101406.81
2022-10-31T07:25:48.420Z,101404.94
2022-10-31T07:28:15.888Z,101419.63
2022-10-31T07:30:44.716Z,101408.97
2022-10-31T07:33:12.170Z,101410.38
2022-10-31T07:35:39.631Z,101416.13
2022-10-31T07:38:10.523Z,101414.88
2022-10-31T07:40:38.133Z,101426.84
2022-10-31T07:43:08.858Z,101415.91
2022-10-31T07:45:40.622Z,101420.81
2022-10-31T07:48:09.436Z,101429.28
2022-10-31T07:50:36.968Z,101428.53
2022-10-31T07:53:05.210Z,101426.72
2022-10-31T07:55:32.918Z,101434.50
2022-10-31T07:58:00.945Z,101432.72
2022-10-31T08:00:28.702Z,101426.63
2022-10-31T08:03:00.287Z,101428.69
2022-10-31T08:05:29.666Z,101431.09
2022-10-31T08:07:57.477Z,101419.28
2022-10-31T08:10:25.286Z,101421.94
2022-10-31T08:12:57.189Z,101421.91
2022-10-31T08:15:24.722Z,101422.34
2022-10-31T08:17:52.222Z,101429.41
2022-10-31T08:20:19.803Z,101430.19
2022-10-31T08:22:55.925Z,101429.06
2022-10-31T08:25:23.407Z,101420.06
2022-10-31T08:27:51.512Z,101418.00
2022-10-31T08:30:19.110Z,101410.59
2022-10-31T08:32:46.684Z,101413.69
2022-10-31T08:35:14.226Z,101404.53
2022-10-31T08:37:41.650Z,101414.94
2022-10-31T08:40:11.988Z,101405.63
2022-10-31T08:42:39.414Z,101403.53
2022-10-31T08:45:07.046Z,101396.94
2022-10-31T08:47:34.508Z,101403.47
2022-10-31T08:50:01.957Z,101402.03
2022-10-31T08:52:58.856Z,101399.00
2022-10-31T08:55:18.316Z,101400.09
2022-10-31T08:57:45.785Z,101403.59
2022-10-31T09:00:13.600Z,101397.72
2022-10-31T09:02:41.031Z,101392.59
2022-10-31T09:05:08.929Z,101413.28
2022-10-31T09:07:36.413Z,101405.25
2022-10-31T09:10:03.930Z,101396.66
2022-10-31T09:12:32.734Z,101402.91
2022-10-31T09:15:01.766Z,101397.63
2022-10-31T09:17:30.087Z,101413.75
2022-10-31T09:19:58.047Z,101394.75
2022-10-31T09:22:25.516Z,101394.91
2022-10-31T09:24:52.984Z,101402.66
2022-10-31T09:27:20.412Z,101395.97
2022-10-31T09:29:49.222Z,101386.34
2022-10-31T09:32:16.716Z,101389.06
2022-10-31T09:34:44.149Z,101377.88
2022-10-31T09:37:11.605Z,101399.63
2022-10-31T09:39:41.143Z,101387.53
2022-10-31T09:42:19.015Z,101384.72
2022-10-31T09:44:50.129Z,101386.47
2022-10-31T09:47:19.554Z,101381.53
2022-10-31T09:49:56.038Z,101366.06
2022-10-31T09:52:25.105Z,101366.94
2022-10-31T09:54:53.890Z,101372.69
2022-10-31T09:57:22.132Z,101366.53
2022-10-31T09:59:50.947Z,101370.16
2022-10-31T10:02:19.070Z,101381.78
2022-10-31T10:04:46.937Z,101384.63
2022-10-31T10:07:16.253Z,101387.19
2022-10-31T10:09:43.723Z,101383.84
2022-10-31T10:12:12.228Z,101384.31
2022-10-31T10:14:46.480Z,101390.66
2022-10-31T10:17:18.141Z,101373.19
2022-10-31T10:19:52.352Z,101376.53
2022-10-31T10:22:21.424Z,101364.34
2022-10-31T10:24:56.495Z,101368.53
2022-10-31T10:27:25.824Z,101378.97
2022-10-31T10:29:54.853Z,101369.88
2022-10-31T10:32:24.548Z,101345.16
2022-10-31T10:34:53.012Z,101355.09
2022-10-31T10:37:24.098Z,101361.97
2022-10-31T10:39:52.368Z,101363.69
2022-10-31T10:42:37.487Z,101355.91
2022-10-31T10:45:26.383Z,101367.31
2022-10-31T10:47:58.134Z,101352.75
2022-10-31T10:50:26.854Z,101302.03
2022-10-31T10:53:00.132Z,101311.72
2022-10-31T10:55:30.212Z,101320.19
2022-10-31T10:57:58.617Z,101305.69
2022-10-31T11:00:27.043Z,101309.00
2022-10-31T11:02:56.551Z,101308.59
2022-10-31T11:05:31.980Z,101305.03
2022-10-31T11:07:59.708Z,101298.38
2022-10-31T11:10:27.860Z,101296.56
2022-10-31T11:13:06.095Z,101285.38
2022-10-31T11:15:37.649Z,101285.75
2022-10-31T11:18:07.028Z,101276.06
2022-10-31T11:20:36.740Z,101275.56
2022-10-31T11:23:07.842Z,101256.41
2022-10-31T11:25:35.740Z,101266.09
2022-10-31T11:28:05.049Z,101282.63
2022-10-31T11:30:37.794Z,101275.47
2022-10-31T11:33:06.841Z,101277.00
2022-10-31T11:35:34.734Z,101271.09
2022-10-31T11:38:03.323Z,101257.28
2022-10-31T11:40:31.384Z,101273.97
2022-10-31T11:43:00.693Z,101273.00
2022-10-31T11:45:32.037Z,101271.72
2022-10-31T11:48:01.949Z,101248.88
2022-10-31T11:50:35.108Z,101247.16
2022-10-31T11:53:03.845Z,101235.00
2022-10-31T11:55:34.215Z,101227.59
2022-10-31T11:58:02.224Z,101234.31
2022-10-31T12:00:32.380Z,101226.34
2022-10-31T12:03:08.795Z,101216.63
2022-10-31T12:05:39.068Z,101208.72
2022-10-31T12:08:08.371Z,101213.28
2022-10-31T12:10:42.991Z,101191.91
2022-10-31T12:13:21.123Z,101190.66
2022-10-31T12:15:54.943Z,101178.19
2022-10-31T12:18:44.424Z,101178.97
2022-10-31T12:21:21.895Z,101168.22
2022-10-31T12:23:57.961Z,101170.97
2022-10-31T12:26:31.257Z,101150.09
2022-10-31T12:29:11.920Z,101141.72
2022-10-31T12:31:48.952Z,101138.09
2022-10-31T12:34:47.727Z,101125.69
2022-10-31T12:37:26.156Z,101125.19
2022-10-31T12:40:02.255Z,101126.53
2022-10-31T12:42:42.323Z,101101.56
2022-10-31T12:45:33.107Z,101110.72
2022-10-31T12:48:16.028Z,101117.16
2022-10-31T12:50:54.312Z,101111.63
2022-10-31T12:53:33.377Z,101088.94
2022-10-31T12:56:12.251Z,101095.53
2022-10-31T12:58:44.251Z,101088.66
2022-10-31T13:01:16.884Z,101087.97
2022-10-31T13:03:49.030Z,101076.94
2022-10-31T13:06:21.283Z,101071.56
2022-10-31T13:08:54.286Z,101052.56
2022-10-31T13:11:24.378Z,101057.50
2022-10-31T13:13:57.620Z,101039.09
2022-10-31T13:16:28.057Z,101051.47
2022-10-31T13:19:01.183Z,101032.22
2022-10-31T13:21:39.541Z,101027.47
2022-10-31T13:24:13.688Z,101032.28
2022-10-31T13:26:47.168Z,101026.69
2022-10-31T13:29:20.631Z,101007.72
2022-10-31T13:31:48.408Z,101020.09
2022-10-31T13:34:26.964Z,101004.81
2022-10-31T13:37:00.532Z,101010.09
2022-10-31T13:39:36.963Z,101015.22
2022-10-31T13:42:10.571Z,101009.56
2022-10-31T13:44:39.471Z,101011.81
2022-10-31T13:47:23.198Z,101010.94
2022-10-31T13:49:51.605Z,101003.25
2022-10-31T13:52:26.268Z,100986.31
2022-10-31T13:54:57.744Z,100985.59
2022-10-31T13:57:34.411Z,100986.56
2022-10-31T14:00:04.961Z,100970.56
2022-10-31T14:02:33.853Z,100969.75
2022-10-31T14:05:03.181Z,100964.75
2022-10-31T14:07:33.932Z,100955.59
2022-10-31T14:10:04.720Z,100962.97
2022-10-31T14:12:35.061Z,100959.97
2022-10-31T14:15:06.817Z,100929.41
2022-10-31T14:17:41.739Z,100944.38
2022-10-31T14:20:32.963Z,100945.69
2022-10-31T14:25:36.552Z,100930.88
2022-10-31T14:28:19.691Z,100920.97
2022-10-31T14:30:54.154Z,100922.94
2022-10-31T14:33:22.364Z,100926.09
2022-10-31T14:35:55.228Z,100904.56
2022-10-31T14:38:31.560Z,100917.47
2022-10-31T14:41:13.416Z,100907.22
2022-10-31T14:43:54.415Z,100897.47
2022-10-31T14:46:32.848Z,100897.50
2022-10-31T14:49:22.615Z,100906.94
2022-10-31T14:51:51.059Z,100892.63
2022-10-31T14:54:22.172Z,100879.72
2022-10-31T14:56:54.639Z,100900.03
2022-10-31T14:59:26.673Z,100894.97
2022-10-31T15:01:58.774Z,100872.75
2022-10-31T15:04:28.299Z,100889.78
2022-10-31T15:07:00.330Z,100879.19
2022-10-31T15:09:30.856Z,100874.56
2022-10-31T15:12:01.506Z,100890.16
2022-10-31T15:14:30.857Z,100888.03
2022-10-31T15:16:59.766Z,100888.91
2022-10-31T15:19:28.560Z,100887.16
2022-10-31T15:21:57.982Z,100877.75
2022-10-31T15:24:26.926Z,100867.47
2022-10-31T15:26:56.914Z,100850.97
2022-10-31T15:29:28.187Z,100855.34
2022-10-31T15:31:57.297Z,100858.00
2022-10-31T15:34:28.727Z,100835.44
2022-10-31T15:36:56.395Z,100815.44
2022-10-31T15:39:24.117Z,100811.78
2022-10-31T15:41:54.984Z,100821.22
2022-10-31T15:44:26.923Z,100832.41
2022-10-31T15:46:56.717Z,100842.22
2022-10-31T15:49:37.127Z,100831.22
2022-10-31T15:52:07.313Z,100815.44
2022-10-31T15:54:35.170Z,100807.75
2022-10-31T15:57:02.847Z,100815.72
2022-10-31T15:59:32.126Z,100798.97
2022-10-31T16:02:03.141Z,100805.22
2022-10-31T16:04:31.588Z,100794.16
2022-10-31T16:07:01.764Z,100813.69
2022-10-31T16:09:29.634Z,100790.84
2022-10-31T16:11:58.736Z,100790.44
2022-10-31T16:14:28.424Z,100786.41
2022-10-31T16:16:59.189Z,100802.41
2022-10-31T16:19:30.228Z,100800.56
2022-10-31T16:22:06.408Z,100803.44
2022-10-31T16:24:35.605Z,100796.22
2022-10-31T16:27:06.091Z,100791.91
2022-10-31T16:29:40.417Z,100777.47
2022-10-31T16:32:34.860Z,100779.47
2022-10-31T16:35:19.384Z,100768.63
2022-10-31T16:37:47.071Z,100777.97
2022-10-31T16:40:15.860Z,100781.22
2022-10-31T16:42:44.017Z,100772.00
2022-10-31T16:45:17.265Z,100770.25
2022-10-31T16:47:46.327Z,100775.44
2022-10-31T16:50:16.031Z,100774.72
2022-10-31T16:53:08.286Z,100764.31
2022-10-31T16:55:35.868Z,100766.66
2022-10-31T16:58:04.083Z,100750.81
2022-10-31T17:00:31.827Z,100741.69
2022-10-31T17:03:01.227Z,100743.03
2022-10-31T17:05:30.374Z,100733.34
2022-10-31T17:07:58.466Z,100716.19
2022-10-31T17:10:26.874Z,100721.97
2022-10-31T17:12:54.904Z,100717.06
2022-10-31T17:15:25.255Z,100714.94
2022-10-31T17:17:53.245Z,100711.50
2022-10-31T17:20:24.136Z,100730.88
2022-10-31T17:22:52.144Z,100725.25
2022-10-31T17:25:22.603Z,100720.34
2022-10-31T17:27:50.550Z,100722.22
2022-10-31T17:30:19.529Z,100705.31
2022-10-31T17:32:47.844Z,100716.66
2022-10-31T17:35:16.344Z,100704.81
2022-10-31T17:37:46.104Z,100704.59
2022-10-31T17:40:15.292Z,100708.59
2022-10-31T17:42:43.077Z,100698.38
2022-10-31T17:45:13.245Z,100698.28
2022-10-31T17:47:40.874Z,100691.50
2022-10-31T17:50:09.483Z,100692.53
2022-10-31T17:52:37.130Z,100693.16
2022-10-31T17:55:06.888Z,100676.50
2022-10-31T17:57:35.635Z,100676.50
2022-10-31T18:00:03.713Z,100680.38
2022-10-31T18:02:31.455Z,100682.41
2022-10-31T18:04:59.203Z,100662.38
2022-10-31T18:07:27.570Z,100674.25
2022-10-31T18:09:55.300Z,100664.66
2022-10-31T18:12:24.798Z,100660.75
2022-10-31T18:14:52.538Z,100648.13
2022-10-31T18:17:20.636Z,100656.41
2022-10-31T18:19:48.389Z,100651.78
2022-10-31T18:22:16.416Z,100652.94
2022-10-31T18:24:44.089Z,100637.88
2022-10-31T18:27:11.712Z,100634.09
2022-10-31T18:29:40.727Z,100629.50
2022-10-31T18:32:09.782Z,100636.31
2022-10-31T18:34:37.723Z,100633.25
2022-10-31T18:37:05.588Z,100631.06
2022-10-31T18:39:33.258Z,100623.94
2022-10-31T18:42:00.937Z,100612.56
2022-10-31T18:44:28.619Z,100625.66
2022-10-31T18:46:57.616Z,100613.53
2022-10-31T18:49:25.971Z,100607.00
2022-10-31T18:51:53.763Z,100604.84
2022-10-31T18:54:21.429Z,100602.72
2022-10-31T18:56:49.338Z,100599.28
2022-10-31T18:59:17.009Z,100599.66
2022-10-31T19:01:44.769Z,100591.88
2022-10-31T19:04:13.884Z,100579.66
2022-10-31T19:06:41.570Z,100579.72
2022-10-31T19:09:10.337Z,100588.09
2022-10-31T19:11:38.654Z,100585.44
2022-10-31T19:14:08.277Z,100578.53
2022-10-31T19:16:36.491Z,100577.00
2022-10-31T19:19:04.402Z,100580.16
2022-10-31T19:21:33.525Z,100575.50
2022-10-31T19:24:01.649Z,100574.31
2022-10-31T19:26:29.703Z,100576.72
2022-10-31T19:28:57.722Z,100572.88
2022-10-31T19:31:25.536Z,100562.00
2022-10-31T19:33:53.180Z,100550.59
2022-10-31T19:36:21.400Z,100560.94
2022-10-31T19:38:52.210Z,100548.06
2022-10-31T19:41:22.745Z,100553.34
2022-10-31T19:43:51.187Z,100534.47
2022-10-31T19:46:27.735Z,100548.41
2022-10-31T19:49:02.049Z,100524.69
2022-10-31T19:51:29.795Z,100540.91
2022-10-31T19:53:58.809Z,100519.63
2022-10-31T19:56:26.681Z,100524.47
2022-10-31T19:58:54.525Z,100508.75
2022-10-31T20:01:24.660Z,100521.00
2022-10-31T20:03:52.954Z,100523.53
2022-10-31T20:06:23.494Z,100523.28
2022-10-31T20:08:52.369Z,100514.03
2022-10-31T20:11:21.401Z,100512.81
2022-10-31T20:13:49.183Z,100514.41
2022-10-31T20:16:17.508Z,100522.03
2022-10-31T20:18:45.365Z,100522.03
2022-10-31T20:21:15.838Z,100510.72
2022-10-31T20:23:43.895Z,100526.38
2022-10-31T20:26:13.662Z,100509.75
2022-10-31T20:28:43.660Z,100509.75
2022-10-31T20:31:12.848Z,100508.75
2022-10-31T20:33:40.511Z,100501.00
2022-10-31T20:36:09.684Z,100503.94
2022-10-31T20:38:38.812Z,100507.59
2022-10-31T20:41:08.348Z,100506.97
2022-10-31T20:43:36.403Z,100508.50
2022-10-31T20:46:07.183Z,100499.66
2022-10-31T20:50:09.438Z,100508.50
2022-10-31T20:52:37.373Z,100512.22
2022-10-31T20:55:05.045Z,100495.97
2022-10-31T20:57:32.519Z,100488.13
2022-10-31T21:00:00.049Z,100498.25
2022-10-31T21:02:27.601Z,100484.28
2022-10-31T21:04:55.154Z,100499.09
2022-10-31T21:07:23.979Z,100488.97
2022-10-31T21:09:51.435Z,100491.25
2022-10-31T21:12:18.882Z,100503.69
2022-10-31T21:14:46.348Z,100492.09
2022-10-31T21:17:13.787Z,100482.97
2022-10-31T21:19:41.264Z,100482.34
2022-10-31T21:22:08.848Z,100496.94
2022-10-31T21:24:37.695Z,100475.97
2022-10-31T21:27:08.508Z,100477.81
2022-10-31T21:29:39.398Z,100482.34
2022-10-31T21:32:06.988Z,100481.69
2022-10-31T21:34:34.438Z,100477.56
2022-10-31T21:37:01.892Z,100473.19
2022-10-31T21:39:29.412Z,100461.00
2022-10-31T21:41:58.216Z,100465.34
2022-10-31T21:44:25.696Z,100469.03
2022-10-31T21:46:53.135Z,100463.13
2022-10-31T21:49:20.654Z,100460.75
2022-10-31T21:51:48.099Z,100461.38
2022-10-31T21:54:33.188Z,100461.06
2022-10-31T21:57:03.241Z,100453.16
2022-10-31T21:59:33.164Z,100446.66
2022-10-31T22:02:03.919Z,100448.94
2022-10-31T22:04:31.428Z,100446.09
2022-10-31T22:06:58.874Z,100439.75
2022-10-31T22:09:26.402Z,100437.22
2022-10-31T22:11:53.844Z,100435.06
2022-10-31T22:14:22.647Z,100435.53
2022-10-31T22:16:50.108Z,100428.97
2022-10-31T22:19:17.560Z,100425.31
2022-10-31T22:21:46.348Z,100413.72
2022-10-31T22:24:14.066Z,100412.38
2022-10-31T22:26:41.648Z,100412.38
2022-10-31T22:29:11.248Z,100404.03
2022-10-31T22:31:40.683Z,100401.47
2022-10-31T22:34:08.171Z,100402.69
2022-10-31T22:36:35.878Z,100409.38
2022-10-31T22:39:03.361Z,100378.09
2022-10-31T22:41:31.562Z,100394.78
2022-10-31T22:43:59.352Z,100379.75
2022-10-31T22:46:27.774Z,100385.25
2022-10-31T22:48:56.997Z,100383.09
2022-10-31T22:51:25.252Z,100374.66
2022-10-31T22:53:52.772Z,100380.06
2022-10-31T22:56:21.248Z,100368.94
2022-10-31T22:58:48.787Z,100359.44
2022-10-31T23:01:16.911Z,100368.63
2022-10-31T23:03:44.612Z,100359.66
2022-10-31T23:06:13.886Z,100360.47
2022-10-31T23:08:41.434Z,100352.78
2022-10-31T23:11:15.798Z,100353.78
2022-10-31T23:14:00.700Z,100347.44
2022-10-31T23:16:28.160Z,100348.06
2022-10-31T23:18:55.642Z,100349.31
2022-10-31T23:21:53.698Z,100345.94
2022-10-31T23:24:21.947Z,100344.25
2022-10-31T23:27:07.491Z,100347.44
2022-10-31T23:29:35.207Z,100344.47
2022-10-31T23:32:02.828Z,100336.75
2022-10-31T23:34:30.650Z,100326.22
2022-10-31T23:36:59.507Z,100331.44
2022-10-31T23:39:27.014Z,100330.25
2022-10-31T23:41:54.461Z,100327.00
2022-10-31T23:44:21.967Z,100315.59
2022-10-31T23:46:49.453Z,100321.56
2022-10-31T23:49:17.459Z,100316.94
2022-10-31T23:51:44.931Z,100334.28
2022-10-31T23:54:13.763Z,100334.09
2022-10-31T23:56:41.244Z,100339.59
2022-10-31T23:59:08.871Z,100329.22
